createdAt,value
2023-02-05T00:01:50.021Z,2.25
2023-02-05T00:05:12.363Z,2.22
2023-02-05T00:08:34.889Z,1.85
2023-02-05T00:11:57.453Z,2.45
2023-02-05T00:15:19.816Z,2.17
2023-02-05T00:18:42.623Z,2.10
2023-02-05T00:22:04.876Z,2.38
2023-02-05T00:25:27.176Z,2.30
2023-02-05T00:28:49.454Z,2.00
2023-02-05T00:32:11.683Z,2.40
2023-02-05T00:35:34.174Z,3.05
2023-02-05T00:38:56.878Z,3.30
2023-02-05T00:42:19.136Z,3.25
2023-02-05T00:45:41.462Z,2.97
2023-02-05T00:49:04.446Z,2.85
2023-02-05T00:52:27.032Z,2.97
2023-02-05T00:55:49.754Z,2.55
2023-02-05T00:59:11.949Z,2.50
2023-02-05T01:02:34.308Z,2.58
2023-02-05T01:05:57.147Z,2.50
2023-02-05T01:09:19.477Z,2.45
2023-02-05T01:12:41.737Z,2.47
2023-02-05T01:16:04.737Z,2.60
2023-02-05T01:19:27.193Z,2.40
2023-02-05T01:22:49.555Z,2.47
2023-02-05T01:26:11.878Z,2.35
2023-02-05T01:29:34.187Z,2.05
2023-02-05T01:32:56.385Z,2.10
2023-02-05T01:36:19.717Z,2.42
2023-02-05T01:39:42.306Z,2.30
2023-02-05T01:43:04.640Z,2.00
2023-02-05T01:46:31.233Z,2.00
2023-02-05T01:49:54.179Z,1.85
2023-02-05T01:53:21.738Z,1.73
2023-02-05T01:56:50.065Z,1.95
2023-02-05T02:00:12.790Z,2.10
2023-02-05T02:03:40.472Z,1.55
2023-02-05T02:07:05.383Z,2.03
2023-02-05T02:10:27.783Z,2.15
2023-02-05T02:13:54.606Z,2.00
2023-02-05T02:17:18.225Z,1.80
2023-02-05T02:20:42.209Z,1.42
2023-02-05T02:24:22.150Z,1.90
2023-02-05T02:27:50.253Z,1.95
2023-02-05T02:31:28.152Z,1.77
2023-02-05T02:35:01.053Z,1.67
2023-02-05T02:38:57.667Z,1.80
2023-02-05T02:42:35.382Z,1.98
2023-02-05T02:46:06.876Z,1.98
2023-02-05T02:49:37.047Z,1.80
2023-02-05T02:53:09.999Z,2.25
2023-02-05T02:56:37.298Z,1.63
2023-02-05T03:00:02.785Z,1.58
2023-02-05T03:03:28.319Z,1.73
2023-02-05T03:06:53.588Z,1.67
2023-02-05T03:10:32.209Z,1.70
2023-02-05T03:13:56.508Z,1.38
2023-02-05T03:17:24.402Z,1.48
2023-02-05T03:21:05.374Z,1.40
2023-02-05T03:24:27.608Z,1.55
2023-02-05T03:27:53.008Z,1.20
2023-02-05T03:31:49.969Z,1.40
2023-02-05T03:35:44.662Z,1.50
2023-02-05T03:39:13.773Z,1.20
2023-02-05T03:43:02.258Z,1.55
2023-02-05T03:46:48.048Z,1.10
2023-02-05T03:53:32.546Z,1.35
2023-02-05T03:57:05.817Z,1.10
2023-02-05T04:00:32.268Z,1.00
2023-02-05T04:03:56.557Z,1.40
2023-02-05T04:07:19.759Z,1.10
2023-02-05T04:10:43.306Z,1.20
2023-02-05T04:14:05.615Z,1.60
2023-02-05T04:17:28.316Z,1.38
2023-02-05T04:20:50.799Z,1.38
2023-02-05T04:24:17.144Z,1.10
2023-02-05T04:27:41.273Z,1.15
2023-02-05T04:31:07.626Z,1.10
2023-02-05T04:34:30.533Z,1.38
2023-02-05T04:37:54.130Z,1.00
2023-02-05T04:41:16.566Z,1.25
2023-02-05T04:44:38.876Z,1.10
2023-02-05T04:48:01.255Z,0.80
2023-02-05T04:51:23.501Z,0.88
2023-02-05T04:54:45.846Z,1.27
2023-02-05T04:58:08.042Z,1.10
2023-02-05T05:01:30.577Z,0.82
2023-02-05T05:04:52.870Z,1.00
2023-02-05T05:08:15.133Z,1.13
2023-02-05T05:11:37.388Z,0.88
2023-02-05T05:14:59.694Z,0.85
2023-02-05T05:18:22.783Z,1.08
2023-02-05T05:21:45.098Z,0.80
2023-02-05T05:25:07.647Z,0.95
2023-02-05T05:28:33.833Z,1.05
2023-02-05T05:31:56.210Z,0.98
2023-02-05T05:35:18.486Z,1.00
2023-02-05T05:38:41.127Z,0.70
2023-02-05T05:42:22.754Z,1.20
2023-02-05T05:45:45.013Z,0.85
2023-02-05T05:49:07.273Z,0.70
2023-02-05T05:52:32.308Z,0.80
2023-02-05T05:59:17.023Z,0.63
2023-02-05T06:02:44.633Z,0.80
2023-02-05T06:06:08.454Z,0.80
2023-02-05T06:09:30.782Z,0.70
2023-02-05T06:12:53.120Z,0.60
2023-02-05T06:16:15.450Z,0.85
2023-02-05T06:19:37.702Z,0.80
2023-02-05T06:23:00.247Z,0.85
2023-02-05T06:26:22.478Z,1.00
2023-02-05T06:29:44.734Z,0.80
2023-02-05T06:33:07.010Z,0.50
2023-02-05T06:36:29.303Z,0.70
2023-02-05T06:39:51.992Z,0.70
2023-02-05T06:43:14.592Z,0.50
2023-02-05T06:46:36.918Z,0.80
2023-02-05T06:49:59.242Z,0.63
2023-02-05T06:53:21.538Z,0.80
2023-02-05T06:56:43.979Z,0.50
2023-02-05T07:00:07.050Z,0.65
2023-02-05T07:03:29.303Z,0.55
2023-02-05T07:06:53.869Z,0.60
2023-02-05T07:10:16.174Z,0.80
2023-02-05T07:13:38.451Z,0.80
2023-02-05T07:17:00.670Z,0.70
2023-02-05T07:20:23.338Z,0.80
2023-02-05T07:23:45.673Z,0.73
2023-02-05T07:27:07.938Z,0.68
2023-02-05T07:30:30.238Z,0.80
2023-02-05T07:33:52.627Z,0.50
2023-02-05T07:37:14.827Z,0.77
2023-02-05T07:40:37.345Z,0.40
2023-02-05T07:43:59.709Z,0.73
2023-02-05T07:47:21.954Z,0.63
2023-02-05T07:50:45.301Z,0.80
2023-02-05T07:54:09.437Z,0.63
2023-02-05T07:57:31.732Z,0.57
2023-02-05T08:00:54.038Z,0.65
2023-02-05T08:04:16.332Z,0.47
2023-02-05T08:07:38.674Z,0.50
2023-02-05T08:11:03.869Z,0.50
2023-02-05T08:14:26.094Z,0.63
2023-02-05T08:17:48.918Z,0.60
2023-02-05T08:21:11.145Z,0.80
2023-02-05T08:24:33.464Z,0.65
2023-02-05T08:27:55.709Z,0.50
2023-02-05T08:31:19.508Z,0.60
2023-02-05T08:34:41.741Z,0.77
2023-02-05T08:38:04.058Z,0.68
2023-02-05T08:41:26.277Z,0.90
2023-02-05T08:44:49.042Z,0.88
2023-02-05T08:48:11.266Z,0.60
2023-02-05T08:51:35.738Z,0.70
2023-02-05T08:54:58.274Z,0.50
2023-02-05T08:58:20.517Z,0.60
2023-02-05T09:01:44.309Z,0.60
2023-02-05T09:05:09.273Z,0.68
2023-02-05T09:11:54.057Z,0.52
2023-02-05T09:15:16.281Z,0.52
2023-02-05T09:18:38.689Z,0.70
2023-02-05T09:22:00.916Z,0.73
2023-02-05T09:25:23.244Z,0.57
2023-02-05T09:28:45.748Z,0.93
2023-02-05T09:32:08.097Z,0.90
2023-02-05T09:35:32.711Z,0.77
2023-02-05T09:39:11.934Z,0.60
2023-02-05T09:42:48.138Z,0.73
2023-02-05T09:46:12.723Z,0.77
2023-02-05T09:50:15.102Z,0.70
2023-02-05T09:53:42.135Z,0.65
2023-02-05T09:57:08.117Z,0.55
2023-02-05T10:00:45.283Z,3.47
2023-02-05T10:04:08.299Z,7.97
2023-02-05T10:07:46.993Z,18.40
2023-02-05T10:11:24.257Z,15.57
2023-02-05T10:15:05.247Z,13.85
2023-02-05T10:19:03.518Z,14.15
2023-02-05T10:22:53.095Z,11.02
2023-02-05T10:26:18.177Z,10.18
2023-02-05T10:29:50.811Z,10.35
2023-02-05T10:33:32.449Z,10.65
2023-02-05T10:36:54.677Z,8.77
2023-02-05T10:40:22.130Z,8.27
2023-02-05T10:44:13.440Z,8.02
2023-02-05T10:48:00.650Z,7.72
2023-02-05T10:51:53.238Z,6.63
2023-02-05T10:55:15.650Z,6.53
2023-02-05T10:58:39.318Z,7.38
2023-02-05T11:02:06.070Z,6.63
2023-02-05T11:05:36.697Z,6.22
2023-02-05T11:08:59.247Z,5.03
2023-02-05T11:12:32.614Z,5.28
2023-02-05T11:16:06.903Z,5.10
2023-02-05T11:19:29.632Z,4.47
2023-02-05T11:23:25.128Z,5.82
2023-02-05T11:26:49.379Z,4.47
2023-02-05T11:30:52.177Z,4.25
2023-02-05T11:34:07.752Z,4.28
2023-02-05T11:37:29.989Z,4.20
2023-02-05T11:40:53.690Z,3.97
2023-02-05T11:44:21.546Z,3.63
2023-02-05T11:47:43.814Z,3.50
2023-02-05T11:51:09.096Z,4.63
2023-02-05T11:58:01.357Z,2.80
2023-02-05T12:01:24.582Z,2.88
2023-02-05T12:04:49.682Z,3.10
2023-02-05T12:08:41.437Z,2.75
2023-02-05T12:12:46.787Z,2.85
2023-02-05T12:16:12.072Z,2.60
2023-02-05T12:23:14.221Z,2.30
2023-02-05T12:26:40.036Z,2.60
2023-02-05T12:30:31.226Z,2.53
2023-02-05T12:34:04.619Z,2.20
2023-02-05T12:37:51.138Z,2.03
2023-02-05T12:41:42.741Z,2.22
2023-02-05T12:45:30.357Z,2.45
2023-02-05T12:48:52.495Z,1.80
2023-02-05T12:52:23.304Z,1.88
2023-02-05T12:56:23.519Z,2.60
2023-02-05T13:00:04.377Z,2.47
2023-02-05T13:03:32.151Z,1.90
2023-02-05T13:07:05.730Z,1.90
2023-02-05T13:10:52.842Z,2.17
2023-02-05T13:14:22.493Z,1.70
2023-02-05T13:18:07.084Z,1.45
2023-02-05T13:21:49.015Z,1.70
2023-02-05T13:25:57.840Z,1.90
2023-02-05T13:29:23.347Z,1.48
2023-02-05T13:32:51.607Z,1.60
2023-02-05T13:36:22.442Z,1.50
2023-02-05T13:40:05.430Z,1.75
2023-02-05T13:43:47.850Z,1.58
2023-02-05T13:47:37.244Z,1.50
2023-02-05T13:51:23.285Z,1.30
2023-02-05T13:55:06.084Z,1.50
2023-02-05T13:58:41.865Z,1.10
2023-02-05T14:02:18.590Z,1.20
2023-02-05T14:05:43.333Z,1.30
2023-02-05T14:09:19.056Z,1.25
2023-02-05T14:12:41.451Z,1.08
2023-02-05T14:16:25.617Z,1.10
2023-02-05T14:19:56.816Z,1.00
2023-02-05T14:23:48.266Z,0.90
2023-02-05T14:27:38.001Z,1.30
2023-02-05T14:31:03.297Z,1.10
2023-02-05T14:34:34.433Z,1.02
2023-02-05T14:38:01.388Z,1.00
2023-02-05T14:41:40.654Z,1.10
2023-02-05T14:45:04.035Z,1.10
2023-02-05T14:48:29.214Z,0.82
2023-02-05T14:52:01.633Z,0.98
2023-02-05T14:55:34.462Z,1.20
2023-02-05T14:59:01.351Z,1.00
2023-02-05T15:02:48.543Z,0.90
2023-02-05T15:06:18.011Z,1.00
2023-02-05T15:10:03.905Z,0.65
2023-02-05T15:17:11.370Z,0.70
2023-02-05T15:20:37.942Z,0.70
2023-02-05T15:24:06.530Z,0.68
2023-02-05T15:27:59.563Z,0.88
2023-02-05T15:31:38.733Z,0.90
2023-02-05T15:35:11.530Z,0.70
2023-02-05T15:38:48.498Z,0.95
2023-02-05T15:42:17.566Z,0.60
2023-02-05T15:45:44.948Z,0.70
2023-02-05T15:49:08.327Z,0.45
2023-02-05T15:52:32.344Z,0.75
2023-02-05T15:55:54.722Z,0.90
2023-02-05T15:59:21.478Z,0.70
2023-02-05T16:02:57.709Z,0.43
2023-02-05T16:06:24.929Z,0.70
2023-02-05T16:09:49.142Z,0.40
2023-02-05T16:13:19.190Z,0.70
2023-02-05T16:17:15.424Z,0.80
2023-02-05T16:24:22.153Z,0.47
2023-02-05T16:27:49.061Z,0.73
2023-02-05T16:31:17.380Z,0.50
2023-02-05T16:34:40.642Z,0.60
2023-02-05T16:38:08.710Z,0.50
2023-02-05T16:41:38.496Z,0.73
2023-02-05T16:45:12.940Z,0.47
2023-02-05T16:48:39.228Z,0.73
2023-02-05T16:52:01.542Z,0.82
2023-02-05T16:55:26.440Z,0.35
2023-02-05T16:58:55.708Z,0.55
2023-02-05T17:02:44.442Z,0.40
2023-02-05T17:06:15.511Z,0.40
2023-02-05T17:09:39.475Z,0.40
2023-02-05T17:13:06.074Z,0.50
2023-02-05T17:16:30.854Z,0.60
2023-02-05T17:20:09.673Z,0.70
2023-02-05T17:23:31.830Z,0.70
2023-02-05T17:26:54.065Z,0.80
2023-02-05T17:30:18.966Z,0.80
2023-02-05T17:33:41.228Z,0.77
2023-02-05T17:37:05.149Z,0.43
2023-02-05T17:40:27.630Z,0.65
2023-02-05T17:43:49.852Z,0.85
2023-02-05T17:47:12.985Z,0.70
2023-02-05T17:50:36.372Z,0.55
2023-02-05T17:53:58.744Z,0.80
2023-02-05T17:57:22.584Z,0.77
2023-02-05T18:00:44.821Z,0.50
2023-02-05T18:04:07.363Z,0.77
2023-02-05T18:07:31.591Z,0.68
2023-02-05T18:10:53.993Z,0.87
2023-02-05T18:14:16.283Z,0.73
2023-02-05T18:17:38.575Z,0.70
2023-02-05T18:21:00.786Z,1.10
2023-02-05T18:24:22.923Z,0.70
2023-02-05T18:27:45.307Z,0.80
2023-02-05T18:31:09.680Z,0.85
2023-02-05T18:34:32.021Z,0.80
2023-02-05T18:37:54.222Z,0.80
2023-02-05T18:41:25.836Z,0.95
2023-02-05T18:44:48.013Z,0.70
2023-02-05T18:48:10.406Z,0.90
2023-02-05T18:51:32.718Z,0.75
2023-02-05T18:54:54.887Z,1.00
2023-02-05T18:58:17.305Z,1.02
2023-02-05T19:01:40.470Z,0.77
2023-02-05T19:05:02.896Z,0.90
2023-02-05T19:08:25.148Z,0.73
2023-02-05T19:11:48.796Z,1.02
2023-02-05T19:15:10.993Z,0.80
2023-02-05T19:18:33.337Z,0.73
2023-02-05T19:22:01.562Z,0.88
2023-02-05T19:25:24.080Z,0.70
2023-02-05T19:28:47.245Z,0.90
2023-02-05T19:32:09.575Z,1.10
2023-02-05T19:35:31.757Z,2.22
2023-02-05T19:38:54.380Z,1.00
2023-02-05T19:42:16.771Z,0.80
2023-02-05T19:45:39.009Z,1.08
2023-02-05T19:49:07.801Z,1.10
2023-02-05T19:52:30.145Z,1.77
2023-02-05T19:55:52.411Z,1.05
2023-02-05T19:59:16.755Z,0.70
2023-02-05T20:02:39.071Z,0.97
2023-02-05T20:06:04.483Z,1.15
2023-02-05T20:09:27.494Z,1.08
2023-02-05T20:12:49.836Z,1.10
2023-02-05T20:16:18.494Z,2.20
2023-02-05T20:19:40.664Z,2.90
2023-02-05T20:23:02.913Z,3.40
2023-02-05T20:26:25.819Z,2.63
2023-02-05T20:30:06.726Z,3.00
2023-02-05T20:33:29.436Z,2.63
2023-02-05T20:36:53.264Z,2.70
2023-02-05T20:40:15.550Z,2.72
2023-02-05T20:43:37.993Z,2.45
2023-02-05T20:47:00.170Z,2.95
2023-02-05T20:50:22.419Z,2.35
2023-02-05T20:53:45.502Z,2.42
2023-02-05T20:57:07.806Z,2.30
2023-02-05T21:00:30.128Z,2.33
2023-02-05T21:03:55.686Z,1.85
2023-02-05T21:07:18.449Z,1.67
2023-02-05T21:10:41.078Z,2.03
2023-02-05T21:14:03.697Z,2.10
2023-02-05T21:17:25.926Z,1.50
2023-02-05T21:20:48.839Z,1.83
2023-02-05T21:24:15.366Z,1.83
2023-02-05T21:27:37.590Z,1.65
2023-02-05T21:31:07.923Z,1.60
2023-02-05T21:34:30.158Z,1.60
2023-02-05T21:37:52.823Z,1.10
2023-02-05T21:41:17.320Z,1.08
2023-02-05T21:44:39.514Z,1.35
2023-02-05T21:48:01.774Z,1.42
2023-02-05T21:51:26.691Z,1.50
2023-02-05T21:54:50.699Z,2.13
2023-02-05T21:58:13.062Z,1.65
2023-02-05T22:01:36.457Z,1.50
2023-02-05T22:04:58.747Z,1.67
2023-02-05T22:08:20.960Z,1.55
2023-02-05T22:11:44.537Z,1.30
2023-02-05T22:15:07.138Z,1.70
2023-02-05T22:18:29.349Z,1.58
2023-02-05T22:21:51.723Z,1.45
2023-02-05T22:25:14.003Z,1.50
2023-02-05T22:28:36.781Z,1.42
2023-02-05T22:31:59.045Z,1.50
2023-02-05T22:35:21.326Z,1.92
2023-02-05T22:38:44.100Z,1.27
2023-02-05T22:42:06.293Z,1.38
2023-02-05T22:45:31.363Z,1.50
2023-02-05T22:48:54.632Z,1.60
2023-02-05T22:52:16.915Z,1.90
2023-02-05T22:55:40.243Z,1.38
2023-02-05T22:59:03.538Z,1.60
2023-02-05T23:02:25.922Z,1.10
2023-02-05T23:05:48.283Z,1.67
2023-02-05T23:09:14.089Z,1.92
2023-02-05T23:12:36.208Z,1.30
2023-02-05T23:15:58.424Z,1.50
2023-02-05T23:19:22.230Z,1.35
2023-02-05T23:22:44.494Z,1.55
2023-02-05T23:26:09.307Z,1.20
2023-02-05T23:29:31.545Z,1.70
2023-02-05T23:32:54.106Z,1.27
2023-02-05T23:36:16.505Z,1.30
2023-02-05T23:39:38.749Z,1.35
2023-02-05T23:43:00.918Z,1.38
2023-02-05T23:46:23.103Z,1.30
2023-02-05T23:49:45.255Z,1.73
2023-02-05T23:53:07.408Z,1.27
2023-02-05T23:56:29.910Z,1.83
2023-02-05T23:59:52.123Z,1.13
